Time;durP1;ratioP1;P1;durP2;ratioP2;P2;SDS_P1;SDS_P2;PMS_P1;PMS_P2;Temp;Humidity;BMP_temperature;BMP_pressure;BME280_temperature;BME280_humidity;BME280_pressure;Samples;Min_cycle;Max_cycle;Signal;HPM_P1;HPM_P2
2022/05/11 00:01:02;;;;;;;2.40;1.90;;;;;;;9.05;37.79;98957.94;5102301;27;20039;-70
2022/05/11 00:03:27;;;;;;;3.25;1.98;;;;;;;9.06;37.26;98955.16;5097526;27;20043;-73
2022/05/11 00:05:52;;;;;;;3.15;1.85;;;;;;;9.05;37.55;98960.59;5079255;27;20046;-75
2022/05/11 00:08:17;;;;;;;1.77;1.65;;;;;;;9.04;37.36;98953.56;5079572;27;20043;-68
2022/05/11 00:10:42;;;;;;;6.95;2.08;;;;;;;9.02;37.92;98952.88;5097761;27;20513;-75
2022/05/11 00:13:07;;;;;;;3.00;1.85;;;;;;;8.99;38.26;98951.28;5098143;27;20537;-70
2022/05/11 00:15:33;;;;;;;3.28;2.00;;;;;;;8.97;38.02;98947.03;5067119;27;20043;-70
2022/05/11 00:17:58;;;;;;;7.43;1.98;;;;;;;8.93;37.98;98941.09;5080728;27;20096;-72
2022/05/11 00:20:23;;;;;;;2.70;2.03;;;;;;;8.92;37.42;98950.03;5097819;27;20043;-73
2022/05/11 00:22:53;;;;;;;3.97;2.35;;;;;;;8.90;38.28;98949.31;5097443;27;20205;-76
2022/05/11 00:25:18;;;;;;;6.68;2.60;;;;;;;8.84;38.58;98941.78;5079386;27;20035;-77
2022/05/11 00:27:42;;;;;;;2.60;2.10;;;;;;;8.83;38.10;98936.59;5097141;27;20099;-77
2022/05/11 00:30:09;;;;;;;3.67;1.55;;;;;;;8.80;37.78;98943.00;5097258;27;20543;-75
2022/05/11 00:32:33;;;;;;;2.05;1.67;;;;;;;8.76;38.29;98936.22;5078632;27;20039;-72
2022/05/11 00:34:58;;;;;;;6.40;1.83;;;;;;;8.74;38.69;98939.00;5096642;27;20039;-74
2022/05/11 00:37:24;;;;;;;3.97;2.00;;;;;;;8.69;38.51;98937.66;5103093;27;20038;-71
2022/05/11 00:39:48;;;;;;;4.35;1.92;;;;;;;8.66;38.32;98932.56;5084318;27;20073;-72
2022/05/11 00:42:14;;;;;;;5.03;2.47;;;;;;;8.62;38.28;98936.41;5064078;27;20043;-71
2022/05/11 00:44:38;;;;;;;2.60;1.50;;;;;;;8.59;38.64;98931.31;5079006;27;20066;-73
2022/05/11 00:47:18;;;;;;;3.08;2.08;;;;;;;8.56;38.12;98926.25;5077548;27;20043;-74
2022/05/11 00:49:52;;;;;;;8.77;1.98;;;;;;;8.56;38.48;98934.22;5077922;27;20053;-69
2022/05/11 00:52:22;;;;;;;3.53;1.80;;;;;;;8.55;38.34;98932.50;5098190;27;20126;-71
2022/05/11 00:54:59;;;;;;;5.28;1.85;;;;;;;8.53;38.36;98927.31;5077864;28;20073;-74
2022/05/11 00:57:36;;;;;;;3.58;2.05;;;;;;;8.49;38.63;98935.63;5077395;27;20047;-71
2022/05/11 01:00:03;;;;;;;5.07;2.38;;;;;;;8.40;39.02;98936.28;5096251;27;20092;-74
2022/05/11 01:02:28;;;;;;;5.35;2.17;;;;;;;8.33;39.06;98935.91;5077909;27;20031;-69
2022/05/11 01:04:59;;;;;;;2.72;1.95;;;;;;;8.32;38.74;98935.06;5095585;27;20050;-66
2022/05/11 01:07:28;;;;;;;4.15;2.05;;;;;;;8.25;39.39;98936.41;5095775;28;20043;-74
2022/05/11 01:09:52;;;;;;;8.30;2.25;;;;;;;8.22;39.10;98928.72;5078078;28;20043;-70
2022/05/11 01:12:20;;;;;;;5.55;2.22;;;;;;;8.22;39.38;98935.81;5048193;28;20039;-73
2022/05/11 01:14:50;;;;;;;2.05;1.52;;;;;;;8.21;39.69;98936.78;5061025;28;20035;-64
2022/05/11 01:17:15;;;;;;;5.05;1.83;;;;;;;8.17;39.27;98932.63;5083267;28;20050;-63
2022/05/11 01:19:44;;;;;;;3.53;2.28;;;;;;;8.15;39.75;98938.06;5084581;28;20050;-64
2022/05/11 01:22:24;;;;;;;5.22;2.58;;;;;;;8.15;39.51;98938.06;5078438;28;20074;-64
2022/05/11 01:24:50;;;;;;;4.70;2.13;;;;;;;8.09;39.46;98930.56;5077399;28;20505;-65
2022/05/11 01:27:45;;;;;;;2.97;2.17;;;;;;;8.15;39.19;98924.78;5095771;28;20050;-65
2022/05/11 01:30:12;;;;;;;;;;;;;;;8.24;38.84;98932.06;5076714;28;20043;-64
2022/05/11 01:32:37;;;;;;;3.53;2.00;;;;;;;8.16;39.11;98925.63;5076963;28;19919;-63
2022/05/11 01:35:22;;;;;;;4.53;1.80;;;;;;;8.14;39.56;98922.22;5096238;28;20170;-64
2022/05/11 01:38:02;;;;;;;5.15;2.15;;;;;;;8.20;38.97;98927.97;5079064;28;20038;-64
2022/05/11 01:40:26;;;;;;;4.63;1.85;;;;;;;8.16;39.21;98918.50;5061952;28;20092;-63
2022/05/11 01:42:51;;;;;;;1.45;1.15;;;;;;;8.17;39.22;98917.56;5104601;28;20047;-63
2022/05/11 01:45:16;;;;;;;4.00;2.55;;;;;;;8.18;39.72;98918.41;5111167;27;20042;-63
2022/05/11 01:47:41;;;;;;;1.63;1.52;;;;;;;8.19;39.83;98917.44;5094773;27;20049;-62
2022/05/11 01:50:06;;;;;;;2.45;1.48;;;;;;;8.22;39.03;98919.88;5091647;27;20038;-62
2022/05/11 01:52:30;;;;;;;3.42;1.90;;;;;;;8.24;39.30;98910.00;5090409;27;20502;-63
2022/05/11 01:54:55;;;;;;;9.68;1.80;;;;;;;8.26;39.74;98916.03;5099652;27;20439;-64
2022/05/11 01:57:20;;;;;;;4.00;1.88;;;;;;;8.28;39.01;98914.97;5081244;27;20047;-66
2022/05/11 01:59:44;;;;;;;9.55;2.33;;;;;;;8.34;39.12;98927.84;5100128;27;20039;-66
2022/05/11 02:02:09;;;;;;;3.97;2.30;;;;;;;8.37;39.17;98922.28;5082044;27;20125;-70
2022/05/11 02:08:10;;;;;;;2.95;1.98;;;;;;;8.48;39.09;98910.84;5019604;28;20105;-65
2022/05/11 02:10:10;;;;;;;2.70;1.67;;;;;;;8.51;39.05;98913.28;5006775;28;20077;-67
2022/05/11 02:12:36;;;;;;;3.40;1.92;;;;;;;8.56;38.51;98907.66;5000950;28;20060;-66
2022/05/11 02:15:01;;;;;;;6.57;3.08;;;;;;;8.61;38.73;98913.44;5001333;28;20091;-67
2022/05/11 02:17:25;;;;;;;4.85;2.25;;;;;;;8.66;39.52;98911.31;5017695;28;20044;-65
2022/05/11 02:19:50;;;;;;;3.30;1.73;;;;;;;8.71;38.98;98917.09;5016159;28;20045;-73
2022/05/11 02:22:15;;;;;;;4.80;1.30;;;;;;;8.76;38.68;98907.00;5016902;28;20067;-73
2022/05/11 02:24:40;;;;;;;3.92;1.88;;;;;;;8.79;38.19;98911.22;5020364;28;20057;-74
2022/05/11 02:27:04;;;;;;;4.38;1.77;;;;;;;8.83;38.67;98913.53;5025936;28;20072;-73
2022/05/11 02:29:30;;;;;;;1.67;1.30;;;;;;;8.88;37.91;98906.06;5019466;28;20041;-70
2022/05/11 02:31:54;;;;;;;5.10;1.90;;;;;;;8.94;37.50;98899.41;5016024;28;20555;-75
2022/05/11 02:37:03;;;;;;;3.50;2.17;;;;;;;9.01;38.14;98905.97;5015496;28;20542;-71
2022/05/11 02:39:27;;;;;;;3.65;1.75;;;;;;;9.03;37.59;98904.88;5015391;28;20407;-74
2022/05/11 02:41:54;;;;;;;5.45;1.88;;;;;;;9.06;37.29;98904.63;5016580;28;20415;-73
2022/05/11 02:44:19;;;;;;;1.90;1.63;;;;;;;9.06;37.56;98909.09;5040471;28;20054;-74
2022/05/11 02:46:43;;;;;;;6.03;2.15;;;;;;;9.10;37.77;98907.91;5058574;28;20126;-73
2022/05/11 02:49:08;;;;;;;3.92;2.10;;;;;;;9.14;37.55;98905.88;5060090;28;20048;-74
2022/05/11 02:51:33;;;;;;;5.45;1.92;;;;;;;9.20;37.06;98902.72;5058285;28;20502;-73
2022/05/11 02:53:58;;;;;;;4.13;2.05;;;;;;;9.24;37.47;98907.72;5045734;28;20040;-73
2022/05/11 02:56:24;;;;;;;2.28;1.42;;;;;;;9.25;37.11;98903.22;5067740;28;20064;-70
2022/05/11 02:58:48;;;;;;;5.97;2.03;;;;;;;9.27;37.33;98910.09;5067317;28;20047;-62
2022/05/11 03:01:13;;;;;;;2.22;1.85;;;;;;;9.32;37.41;98915.06;5071364;28;20066;-63
2022/05/11 03:03:38;;;;;;;1.73;1.42;;;;;;;9.34;36.27;98905.16;5053210;28;20040;-63
2022/05/11 03:06:05;;;;;;;2.70;1.63;;;;;;;9.36;37.25;98903.25;5089014;28;20051;-63
2022/05/11 03:08:30;;;;;;;3.88;1.73;;;;;;;9.38;36.92;98902.13;5069937;28;20040;-65
2022/05/11 03:10:55;;;;;;;1.77;1.67;;;;;;;9.40;37.15;98902.00;5070198;28;20051;-67
2022/05/11 03:13:20;;;;;;;3.97;1.48;;;;;;;9.43;37.12;98904.44;5075668;28;20036;-66
2022/05/11 03:15:44;;;;;;;1.88;1.67;;;;;;;9.45;36.76;98895.38;5077884;28;20191;-65
2022/05/11 03:18:09;;;;;;;8.60;2.72;;;;;;;9.53;37.37;98905.41;5076765;28;20054;-66
2022/05/11 03:20:34;;;;;;;3.40;2.25;;;;;;;9.60;37.02;98908.41;5076738;28;20042;-66
2022/05/11 03:22:59;;;;;;;11.52;2.10;;;;;;;9.67;36.70;98897.19;5077575;27;20410;-68
2022/05/11 03:25:25;;;;;;;5.93;2.42;;;;;;;9.73;36.08;98904.66;5076517;28;20042;-66
2022/05/11 03:27:51;;;;;;;6.45;2.28;;;;;;;9.76;36.11;98893.78;5077050;28;20554;-66
2022/05/11 03:30:16;;;;;;;4.47;2.45;;;;;;;9.82;36.78;98900.41;5060204;28;20042;-67
2022/05/11 03:35:24;;;;;;;3.97;2.05;;;;;;;9.96;36.16;98894.00;5060850;28;20035;-68
2022/05/11 03:37:49;;;;;;;2.08;1.58;;;;;;;9.99;35.92;98897.25;5076812;28;20100;-68
2022/05/11 03:40:14;;;;;;;4.78;2.40;;;;;;;10.08;36.00;98901.00;5077477;28;20705;-66
2022/05/11 03:42:40;;;;;;;2.75;1.83;;;;;;;10.11;35.48;98900.75;5076560;28;20063;-69
2022/05/11 03:45:14;;;;;;;2.63;1.77;;;;;;;10.18;35.46;98904.63;5078590;28;20074;-71
2022/05/11 03:47:39;;;;;;;2.50;1.83;;;;;;;10.21;35.14;98906.19;5079403;28;20410;-66
2022/05/11 03:50:05;;;;;;;6.53;2.40;;;;;;;10.22;35.67;98902.56;5078893;28;20051;-67
2022/05/11 03:52:30;;;;;;;4.82;2.00;;;;;;;10.25;35.52;98892.50;5080531;28;20040;-67
2022/05/11 03:54:55;;;;;;;3.10;2.15;;;;;;;10.27;35.22;98892.41;5079609;28;20042;-66
2022/05/11 03:57:20;;;;;;;3.38;1.60;;;;;;;10.28;34.94;98904.72;5076517;28;20098;-66
2022/05/11 03:59:45;;;;;;;5.65;2.33;;;;;;;10.31;34.82;98897.31;5076611;28;20039;-65
2022/05/11 04:02:10;;;;;;;5.32;2.20;;;;;;;10.36;35.67;98903.13;5075645;28;20054;-68
2022/05/11 04:04:34;;;;;;;6.43;2.05;;;;;;;10.41;35.36;98898.25;5077156;28;20040;-65
2022/05/11 04:06:59;;;;;;;2.75;1.70;;;;;;;10.44;35.12;98897.16;5058208;28;20043;-66
2022/05/11 04:09:24;;;;;;;4.72;2.03;;;;;;;10.45;34.47;98902.38;5075940;28;20043;-67
2022/05/11 04:11:49;;;;;;;2.25;1.75;;;;;;;10.47;34.88;98899.59;5065461;28;20163;-67
2022/05/11 04:14:14;;;;;;;4.43;1.88;;;;;;;10.46;35.36;98909.41;5081170;28;20066;-66
2022/05/11 04:16:39;;;;;;;1.63;1.17;;;;;;;10.45;35.49;98910.38;5077302;28;20043;-68
2022/05/11 04:19:03;;;;;;;4.00;2.13;;;;;;;10.46;35.02;98911.22;5076339;28;20070;-68
2022/05/11 04:21:28;;;;;;;8.63;2.25;;;;;;;10.48;35.21;98912.78;5076701;28;20490;-67
2022/05/11 04:23:53;;;;;;;7.38;2.28;;;;;;;10.53;34.98;98904.38;5076789;28;20498;-69
2022/05/11 04:26:17;;;;;;;9.35;2.05;;;;;;;10.58;34.90;98896.88;5075192;28;20039;-67
2022/05/11 04:28:43;;;;;;;3.47;1.63;;;;;;;10.63;34.91;98901.81;5076669;28;20043;-67
2022/05/11 04:31:10;;;;;;;4.85;1.98;;;;;;;10.74;35.01;98894.59;5077137;28;20404;-66
2022/05/11 04:33:36;;;;;;;5.03;1.83;;;;;;;10.85;34.50;98885.69;5074944;28;20051;-67
2022/05/11 04:36:01;;;;;;;6.80;2.53;;;;;;;10.93;33.88;98893.91;5076487;28;20040;-67
2022/05/11 04:38:26;;;;;;;3.70;2.33;;;;;;;11.03;33.98;98892.16;5074975;28;20578;-67
2022/05/11 04:40:50;;;;;;;5.47;1.95;;;;;;;11.12;34.06;98896.69;5055516;28;20501;-66
2022/05/11 04:43:15;;;;;;;3.40;1.90;;;;;;;11.22;33.75;98888.75;5037948;28;20542;-67
2022/05/11 04:45:42;;;;;;;10.88;2.47;;;;;;;11.29;34.06;98885.41;5056292;28;20447;-66
2022/05/11 04:48:07;;;;;;;2.47;1.67;;;;;;;11.40;33.67;98883.66;5056281;28;20036;-68
2022/05/11 04:50:32;;;;;;;3.63;1.75;;;;;;;11.50;33.78;98884.53;5055977;28;20558;-67
2022/05/11 04:52:57;;;;;;;4.82;2.35;;;;;;;11.62;33.50;98880.81;5055777;28;20036;-66
2022/05/11 04:55:22;;;;;;;3.03;1.95;;;;;;;11.76;32.89;98884.94;5055943;28;20044;-67
2022/05/11 04:57:48;;;;;;;13.52;3.17;;;;;;;11.84;33.38;98875.28;5037078;28;20036;-66
2022/05/11 05:00:13;;;;;;;9.82;2.30;;;;;;;11.95;32.75;98871.66;5038306;28;20040;-66
2022/05/11 05:02:38;;;;;;;3.45;2.10;;;;;;;11.97;32.72;98867.84;5055631;28;20060;-67
2022/05/11 05:05:05;;;;;;;3.63;2.17;;;;;;;12.03;32.61;98865.63;5055283;28;20044;-66
2022/05/11 05:07:34;;;;;;;8.70;2.45;;;;;;;12.09;32.09;98870.41;5054041;28;20525;-66
2022/05/11 05:09:59;;;;;;;3.20;1.98;;;;;;;12.16;32.03;98874.22;5056941;28;20050;-66
2022/05/11 05:12:24;;;;;;;6.60;2.33;;;;;;;12.25;31.71;98870.72;5058115;28;20043;-67
2022/05/11 05:14:48;;;;;;;3.88;1.85;;;;;;;12.33;31.58;98870.84;5076144;28;20106;-66
2022/05/11 05:17:13;;;;;;;4.80;2.10;;;;;;;12.40;31.36;98868.50;5074351;28;20078;-66
2022/05/11 05:19:43;;;;;;;8.45;1.90;;;;;;;12.50;31.21;98864.81;5040935;28;20047;-66
2022/05/11 05:22:09;;;;;;;5.05;2.25;;;;;;;12.57;30.99;98865.94;5080352;28;20046;-66
2022/05/11 05:24:34;;;;;;;12.63;3.83;;;;;;;12.68;30.83;98864.94;5079756;28;20081;-67
2022/05/11 05:27:00;;;;;;;5.38;2.25;;;;;;;12.81;30.98;98862.84;5081383;28;20042;-68
2022/05/11 05:32:08;;;;;;;2.60;1.73;;;;;;;13.27;30.33;98856.72;5082056;28;20047;-68
2022/05/11 05:34:33;;;;;;;7.60;2.13;;;;;;;13.55;30.15;98862.09;5083957;28;20043;-69
2022/05/11 05:36:58;;;;;;;5.00;2.00;;;;;;;13.83;29.77;98866.47;5065596;28;20035;-68
2022/05/11 05:39:23;;;;;;;2.80;2.17;;;;;;;14.16;29.37;98865.00;5066528;28;20039;-68
2022/05/11 05:41:47;;;;;;;6.60;2.45;;;;;;;14.47;29.03;98857.47;5083753;28;20501;-68
2022/05/11 05:44:12;;;;;;;3.60;2.17;;;;;;;14.80;29.11;98854.06;5086327;28;20031;-68
2022/05/11 05:46:37;;;;;;;5.03;1.92;;;;;;;15.22;28.32;98850.72;5083682;28;20053;-68
2022/05/11 05:49:03;;;;;;;5.10;1.98;;;;;;;15.60;27.70;98847.56;5063176;28;20050;-68
2022/05/11 05:51:28;;;;;;;5.60;2.03;;;;;;;15.84;26.91;98849.53;5061274;28;20394;-68
2022/05/11 05:53:52;;;;;;;6.32;1.83;;;;;;;16.05;26.47;98853.63;5062154;28;20414;-69
2022/05/11 05:56:17;;;;;;;1.90;1.70;;;;;;;16.25;26.12;98841.59;5080541;28;20043;-67
2022/05/11 05:58:44;;;;;;;2.38;1.90;;;;;;;16.44;25.64;98843.97;5082330;28;20051;-69
2022/05/11 06:01:09;;;;;;;6.50;2.60;;;;;;;16.58;25.80;98837.09;5081907;28;20040;-69
2022/05/11 06:03:35;;;;;;;2.38;1.60;;;;;;;16.73;25.28;98834.59;5080701;28;20084;-69
2022/05/11 06:06:00;;;;;;;1.88;1.75;;;;;;;16.92;25.31;98839.66;5081827;28;20439;-67
2022/05/11 06:08:25;;;;;;;3.63;2.17;;;;;;;17.26;24.79;98834.91;5081163;28;20043;-69
2022/05/11 06:10:53;;;;;;;3.55;2.03;;;;;;;17.75;24.55;98838.28;5079890;28;20047;-62
2022/05/11 06:13:22;;;;;;;8.80;2.28;;;;;;;18.11;24.44;98845.88;5078543;28;20055;-62
2022/05/11 06:15:47;;;;;;;2.50;2.13;;;;;;;18.31;23.45;98841.72;5043149;28;20071;-69
2022/05/11 06:18:12;;;;;;;7.03;2.15;;;;;;;18.24;23.38;98832.66;5078613;28;20070;-63
2022/05/11 06:20:37;;;;;;;4.20;2.28;;;;;;;18.21;23.56;98834.88;5078487;28;20118;-61
2022/05/11 06:23:03;;;;;;;7.18;2.40;;;;;;;18.33;23.41;98834.28;5079826;28;20040;-62
2022/05/11 06:25:28;;;;;;;3.90;1.90;;;;;;;18.68;23.46;98827.50;5084466;28;20366;-62
2022/05/11 06:27:53;;;;;;;7.50;2.05;;;;;;;19.05;22.30;98831.22;5067951;28;20069;-62
2022/05/11 06:30:18;;;;;;;2.50;2.05;;;;;;;19.28;22.25;98823.06;5085700;28;20118;-62
2022/05/11 06:32:43;;;;;;;3.50;1.95;;;;;;;19.35;21.70;98824.00;5084888;28;20043;-62
2022/05/11 06:35:08;;;;;;;6.85;2.40;;;;;;;19.39;21.73;98822.59;5060532;28;20043;-62
2022/05/11 06:37:33;;;;;;;6.90;2.05;;;;;;;19.62;21.66;98819.84;5078620;28;20063;-61
2022/05/11 06:39:58;;;;;;;3.85;2.13;;;;;;;20.02;20.86;98821.19;5078902;28;20074;-62
2022/05/11 06:42:24;;;;;;;9.98;2.47;;;;;;;20.59;20.78;98819.34;5060392;28;20103;-64
2022/05/11 06:44:50;;;;;;;10.43;2.58;;;;;;;21.56;20.22;98816.78;5043835;28;20066;-62
2022/05/11 06:47:15;;;;;;;5.45;2.28;;;;;;;22.80;18.74;98809.31;5077831;28;20038;-63
2022/05/11 06:49:40;;;;;;;7.85;2.63;;;;;;;24.02;18.10;98801.41;5077947;28;20046;-62
2022/05/11 06:52:05;;;;;;;4.90;2.00;;;;;;;24.69;16.79;98805.44;5060021;28;20039;-63
2022/05/11 06:59:57;;;;;;;4.53;2.28;;;;;;;26.27;15.71;98795.69;5060328;28;20096;-63
2022/05/11 07:02:23;;;;;;;5.47;3.00;;;;;;;26.45;14.98;98799.44;5061798;28;20209;-63
2022/05/11 07:04:48;;;;;;;5.05;2.78;;;;;;;26.90;14.69;98792.44;5078119;28;20043;-63
2022/05/11 07:07:13;;;;;;;5.65;2.38;;;;;;;27.14;14.59;98790.59;5044340;28;20088;-62
2022/05/11 07:09:39;;;;;;;5.70;2.80;;;;;;;27.68;13.97;98786.66;5078709;28;20043;-63
2022/05/11 07:12:45;;;;;;;3.90;2.58;;;;;;;28.47;13.64;98793.22;5078088;28;20055;-60
2022/05/11 07:14:58;;;;;;;7.95;2.65;;;;;;;29.34;13.31;98797.50;5077244;28;20052;-61
2022/05/11 07:17:30;;;;;;;10.77;3.70;;;;;;;29.86;13.01;98795.22;5061856;28;20050;-62
2022/05/11 07:19:55;;;;;;;10.55;3.38;;;;;;;29.73;12.20;98799.19;5062466;28;20051;-60
2022/05/11 07:22:20;;;;;;;5.60;2.88;;;;;;;29.45;11.86;98791.09;5062894;28;20047;-61
2022/05/11 07:24:45;;;;;;;3.08;2.80;;;;;;;29.53;11.92;98787.91;5079368;28;20066;-61
2022/05/11 07:27:10;;;;;;;5.45;2.60;;;;;;;29.65;12.31;98791.38;5043243;28;20043;-62
2022/05/11 07:29:35;;;;;;;3.83;2.70;;;;;;;29.64;12.09;98792.47;5060663;28;20039;-60
2022/05/11 07:32:00;;;;;;;3.95;2.72;;;;;;;29.69;12.50;98789.78;5058654;28;20039;-62
2022/05/11 07:34:25;;;;;;;4.68;3.85;;;;;;;29.63;11.73;98788.06;5080139;28;20043;-62
2022/05/11 07:36:54;;;;;;;3.90;2.67;;;;;;;29.25;11.95;98788.81;5060787;28;20139;-63
2022/05/11 07:39:18;;;;;;;4.25;2.97;;;;;;;29.08;12.30;98785.28;5077443;28;20039;-63
2022/05/11 07:41:44;;;;;;;5.10;2.80;;;;;;;29.11;12.65;98774.63;5058865;28;20051;-63
2022/05/11 07:44:08;;;;;;;9.73;2.50;;;;;;;29.05;11.98;98783.84;5077306;28;20043;-64
2022/05/11 07:46:36;;;;;;;7.55;3.22;;;;;;;28.70;11.90;98781.31;5075533;28;20115;-62
2022/05/11 07:49:05;;;;;;;5.60;2.92;;;;;;;28.31;12.07;98788.56;5058395;28;20058;-63
2022/05/11 07:51:31;;;;;;;6.00;2.97;;;;;;;27.95;12.50;98784.22;5076629;28;20524;-63
2022/05/11 07:53:56;;;;;;;7.75;2.95;;;;;;;27.67;12.71;98784.16;5062145;28;20520;-62
2022/05/11 08:01:47;;;;;;;9.07;3.55;;;;;;;28.40;12.27;98767.88;5058282;28;20078;-61
2022/05/11 08:04:12;;;;;;;6.93;3.25;;;;;;;28.44;12.66;98769.03;5076461;28;20035;-61
2022/05/11 08:06:36;;;;;;;8.75;3.20;;;;;;;28.57;12.39;98758.84;5076415;28;20047;-61
2022/05/11 08:09:01;;;;;;;4.93;2.78;;;;;;;28.62;12.67;98762.50;5076220;28;20514;-60
2022/05/11 08:11:26;;;;;;;6.32;3.60;;;;;;;28.59;12.74;98756.69;5078914;28;20525;-61
2022/05/11 08:13:50;;;;;;;4.47;2.70;;;;;;;28.46;12.68;98768.78;5076356;28;20051;-60
2022/05/11 08:16:18;;;;;;;4.38;3.13;;;;;;;28.26;13.23;98766.50;5076876;28;20409;-61
2022/05/11 08:18:42;;;;;;;2.88;2.55;;;;;;;28.10;13.44;98759.84;5076327;28;20455;-61
2022/05/11 08:21:09;;;;;;;5.03;2.72;;;;;;;28.02;13.20;98751.19;5078165;28;20444;-60
2022/05/11 08:23:34;;;;;;;7.78;3.08;;;;;;;27.76;13.33;98753.44;5078015;28;20502;-60
2022/05/11 08:25:59;;;;;;;8.63;3.47;;;;;;;27.35;13.94;98748.94;5078974;28;20145;-61
2022/05/11 08:28:26;;;;;;;7.18;2.95;;;;;;;26.72;13.92;98746.88;5076429;28;20039;-61
2022/05/11 08:33:38;;;;;;;6.13;3.17;;;;;;;25.54;15.04;98740.25;5077662;28;20596;-61
2022/05/11 08:36:10;;;;;;;4.50;2.47;;;;;;;24.85;15.85;98747.63;5079051;28;20131;-61
2022/05/11 08:38:39;;;;;;;5.43;2.47;;;;;;;24.28;15.59;98737.78;5078330;28;20041;-61
2022/05/11 08:41:41;;;;;;;9.88;3.42;;;;;;;23.89;16.44;98738.84;5059893;28;20050;-61
2022/05/11 08:44:13;;;;;;;6.43;2.63;;;;;;;23.27;16.83;98740.28;5077600;28;20122;-61
2022/05/11 08:47:16;;;;;;;5.55;2.22;;;;;;;23.17;16.89;98729.84;5059833;28;20047;-62
2022/05/11 08:49:52;;;;;;;3.63;2.53;;;;;;;22.71;17.02;98724.41;5077377;28;20641;-61
2022/05/11 08:52:24;;;;;;;4.68;2.30;;;;;;;22.22;17.32;98724.81;5078141;28;20124;-61
2022/05/11 08:54:58;;;;;;;9.68;3.40;;;;;;;22.09;18.03;98722.91;5077629;28;20532;-61
2022/05/11 08:57:25;;;;;;;14.13;2.97;;;;;;;21.96;17.10;98731.00;5078420;28;20047;-62
2022/05/11 08:59:53;;;;;;;7.18;3.13;;;;;;;22.01;17.83;98731.22;5078922;28;20049;-61
2022/05/11 09:02:24;;;;;;;5.28;2.85;;;;;;;22.13;17.66;98725.19;5078999;28;20039;-62
2022/05/11 09:04:50;;;;;;;7.10;2.92;;;;;;;22.06;17.53;98728.75;5078007;28;20074;-62
2022/05/11 09:07:16;;;;;;;5.78;2.45;;;;;;;21.83;17.63;98733.66;5077257;28;20514;-69
2022/05/11 09:09:41;;;;;;;6.32;2.88;;;;;;;21.54;17.76;98725.84;5063285;28;20047;-67
2022/05/11 09:12:07;;;;;;;6.57;2.80;;;;;;;21.32;17.94;98725.09;5067228;28;20051;-68
2022/05/11 09:14:32;;;;;;;3.58;2.38;;;;;;;21.15;18.45;98721.84;5087424;28;20047;-67
2022/05/11 09:16:56;;;;;;;2.88;2.58;;;;;;;21.15;18.32;98726.41;5067853;28;20053;-67
2022/05/11 09:19:27;;;;;;;6.47;2.58;;;;;;;21.36;18.25;98721.78;5080352;28;20409;-68
2022/05/11 09:22:07;;;;;;;4.82;2.88;;;;;;;21.65;18.49;98730.69;5058163;28;20070;-68
2022/05/11 09:24:37;;;;;;;9.43;3.30;;;;;;;21.77;18.08;98715.50;5083632;28;20067;-68
2022/05/11 09:27:07;;;;;;;4.25;2.50;;;;;;;21.95;18.20;98723.06;5042420;28;20043;-68
2022/05/11 09:29:37;;;;;;;5.70;2.90;;;;;;;21.94;18.02;98730.34;5058178;28;20044;-68
2022/05/11 09:32:26;;;;;;;4.68;2.90;;;;;;;21.99;17.96;98725.19;5076893;28;20081;-63
2022/05/11 09:34:51;;;;;;;4.45;2.67;;;;;;;21.83;18.29;98730.94;5058329;28;20090;-62
2022/05/11 09:37:35;;;;;;;6.75;3.03;;;;;;;21.96;18.40;98717.41;5076824;28;20067;-65
2022/05/11 09:40:10;;;;;;;5.35;2.75;;;;;;;21.97;19.17;98720.97;5060595;28;20036;-62
2022/05/11 09:42:48;;;;;;;5.53;3.10;;;;;;;22.05;18.41;98718.09;5076070;28;20459;-63
2022/05/11 09:45:13;;;;;;;10.80;2.70;;;;;;;21.89;17.99;98716.59;5063143;28;20107;-61
2022/05/11 09:48:02;;;;;;;5.32;2.88;;;;;;;21.67;18.98;98715.03;5084995;28;20047;-62
2022/05/11 09:50:25;;;;;;;9.57;3.08;;;;;;;21.44;19.08;98719.94;5087285;28;20592;-62
2022/05/11 09:52:52;;;;;;;8.65;2.15;;;;;;;21.33;19.22;98724.06;5065905;28;20040;-61
2022/05/11 09:55:28;;;;;;;3.47;2.55;;;;;;;21.26;19.46;98721.31;5066313;28;20035;-60
2022/05/11 09:58:06;;;;;;;5.90;2.65;;;;;;;21.28;19.04;98719.25;5082891;28;20122;-62
2022/05/11 10:00:39;;;;;;;13.45;3.47;;;;;;;21.25;19.89;98721.50;5056667;28;20036;-61
2022/05/11 10:03:19;;;;;;;6.28;2.72;;;;;;;21.37;19.51;98719.91;5057366;28;20039;-61
2022/05/11 10:05:47;;;;;;;9.35;2.90;;;;;;;21.22;19.56;98730.06;5076231;28;20530;-61
2022/05/11 10:08:43;;;;;;;3.88;2.95;;;;;;;21.33;19.09;98732.19;5078819;28;20047;-69
2022/05/11 10:11:23;;;;;;;9.05;2.58;;;;;;;21.13;19.53;98729.31;5015888;28;20053;-69
2022/05/11 10:13:52;;;;;;;4.40;2.92;;;;;;;21.04;19.28;98722.38;5016474;28;20525;-67
2022/05/11 10:22:06;;;;;;;7.72;2.65;;;;;;;20.75;19.69;98725.31;5015747;28;20532;-67
2022/05/11 10:24:49;;;;;;;2.67;2.08;;;;;;;20.91;19.74;98733.13;4999239;28;20041;-67
2022/05/11 10:27:32;;;;;;;7.30;2.88;;;;;;;21.03;20.08;98721.56;5015377;28;20047;-68
2022/05/11 10:30:05;;;;;;;5.93;3.00;;;;;;;21.17;19.66;98721.63;4999005;28;20048;-67
2022/05/11 10:32:51;;;;;;;7.82;3.80;;;;;;;21.46;20.31;98732.25;5015611;28;20044;-69
2022/05/11 10:35:29;;;;;;;5.00;3.10;;;;;;;21.48;20.11;98726.63;5015615;28;20045;-69
2022/05/11 10:38:21;;;;;;;8.25;2.40;;;;;;;21.60;20.08;98720.44;5004604;28;20075;-70
2022/05/11 10:40:55;;;;;;;6.22;2.67;;;;;;;21.61;20.52;98711.25;5028355;28;20052;-67
2022/05/11 10:43:58;;;;;;;3.40;2.42;;;;;;;21.71;19.90;98711.69;5018739;28;20475;-70
2022/05/11 10:46:33;;;;;;;4.18;2.47;;;;;;;21.65;20.02;98711.69;5006501;28;20060;-68
2022/05/11 10:49:26;;;;;;;3.40;2.72;;;;;;;21.64;19.96;98710.84;5077667;28;20061;-68
2022/05/11 10:52:09;;;;;;;4.35;3.17;;;;;;;21.71;20.31;98700.00;5059441;28;20463;-68
2022/05/11 10:55:02;;;;;;;5.78;2.80;;;;;;;21.70;20.57;98706.47;5059475;28;20035;-68
2022/05/11 10:57:45;;;;;;;5.35;2.60;;;;;;;21.61;20.06;98686.00;5079133;28;20081;-67
2022/05/11 11:00:15;;;;;;;2.78;2.47;;;;;;;21.55;20.27;98692.25;5078728;28;20498;-70
2022/05/11 11:03:04;;;;;;;6.80;3.00;;;;;;;21.51;20.40;98701.81;5077756;28;20044;-69
2022/05/11 11:07:10;;;;;;;9.80;3.10;;;;;;;21.57;20.77;98696.41;5058431;28;20051;-70
2022/05/11 11:08:37;;;;;;;3.83;2.53;;;;;;;21.50;20.24;98682.00;5077865;28;20059;-67
2022/05/11 11:11:41;;;;;;;4.05;2.63;;;;;;;21.41;20.39;98688.63;5060550;28;20055;-67
2022/05/11 11:14:10;;;;;;;6.70;3.25;;;;;;;21.11;20.08;98682.59;5066844;28;20051;-66
2022/05/11 11:16:38;;;;;;;4.32;2.58;;;;;;;21.00;21.25;98681.28;5059955;28;20055;-66
2022/05/11 11:19:05;;;;;;;4.35;2.92;;;;;;;21.00;20.81;98672.31;5060210;28;20044;-67
2022/05/11 11:21:30;;;;;;;5.90;3.35;;;;;;;20.97;20.69;98670.88;5078031;28;20138;-67
2022/05/11 11:24:22;;;;;;;5.78;3.17;;;;;;;21.06;20.27;98679.69;5042311;28;20135;-65
2022/05/11 11:26:47;;;;;;;5.70;2.90;;;;;;;20.95;20.95;98672.94;5077408;28;20124;-66
2022/05/11 11:29:11;;;;;;;7.03;3.35;;;;;;;20.97;20.49;98664.63;5059555;28;20089;-66
2022/05/11 11:32:00;;;;;;;9.25;2.90;;;;;;;20.94;20.70;98659.59;5077826;28;20047;-66
2022/05/11 11:34:29;;;;;;;14.75;3.13;;;;;;;20.69;20.57;98659.22;5080284;27;20051;-64
2022/05/11 11:36:55;;;;;;;9.05;3.70;;;;;;;20.50;20.87;98662.63;5098220;27;20117;-64
2022/05/11 11:39:44;;;;;;;5.85;3.17;;;;;;;20.45;21.22;98656.94;5097965;27;20042;-63
2022/05/11 11:42:09;;;;;;;5.40;3.17;;;;;;;20.21;21.21;98647.34;5101845;27;20426;-67
2022/05/11 11:44:46;;;;;;;7.68;2.97;;;;;;;20.13;20.95;98648.34;5101578;27;20089;-67
2022/05/11 11:47:26;;;;;;;3.35;2.97;;;;;;;20.04;21.47;98648.66;5079358;27;20066;-67
2022/05/11 11:49:52;;;;;;;5.55;3.05;;;;;;;19.83;21.76;98650.34;5097258;27;20481;-66
2022/05/11 11:52:32;;;;;;;4.50;3.15;;;;;;;19.74;22.03;98646.09;5096521;27;20045;-66
2022/05/11 11:54:57;;;;;;;5.32;2.88;;;;;;;19.46;22.09;98634.31;5096266;27;20045;-74
2022/05/11 11:57:21;;;;;;;8.38;3.25;;;;;;;19.34;22.40;98636.66;5078368;27;20047;-69
2022/05/11 11:59:49;;;;;;;5.65;2.85;;;;;;;19.30;22.68;98638.06;5077623;27;20413;-70
2022/05/11 12:02:23;;;;;;;13.10;3.97;;;;;;;19.25;22.16;98634.25;5096866;27;20834;-67
2022/05/11 12:04:57;;;;;;;4.50;2.88;;;;;;;19.19;22.54;98636.69;5078769;27;20046;-65
2022/05/11 12:16:25;;;;;;;5.95;3.30;;;;;;;18.93;23.36;98632.81;5095714;27;20046;-62
2022/05/11 12:18:51;;;;;;;8.98;3.30;;;;;;;18.92;23.44;98625.75;5096513;27;20038;-63
2022/05/11 12:21:29;;;;;;;3.35;2.55;;;;;;;18.99;22.60;98619.38;5098545;27;20043;-63
2022/05/11 12:23:55;;;;;;;5.22;2.85;;;;;;;18.85;23.41;98618.38;5077550;27;20437;-62